Time;durP1;ratioP1;P1;durP2;ratioP2;P2;SDS_P1;SDS_P2;PMS_P1;PMS_P2;Temp;Humidity;BMP_temperature;BMP_pressure;BME280_temperature;BME280_humidity;BME280_pressure;Samples;Min_cycle;Max_cycle;Signal;HPM_P1;HPM_P2
2022/12/06 00:01:39;;;;;;;7.00;3.73;;;3.40;97.30;;;;;;5041697;28;20517;-88
2022/12/06 00:04:08;;;;;;;3.67;2.63;;;3.50;97.30;;;;;;5035307;28;20423;-88
2022/12/06 00:06:38;;;;;;;6.90;4.23;;;3.50;97.30;;;;;;5021541;28;20412;-88
2022/12/06 00:09:04;;;;;;;3.73;1.80;;;3.50;97.30;;;;;;5030904;28;20472;-88
2022/12/06 00:11:32;;;;;;;4.33;3.57;;;3.50;97.30;;;;;;5032512;28;20548;-88
2022/12/06 00:14:03;;;;;;;4.83;4.00;;;3.50;97.30;;;;;;5033481;28;20438;-88
2022/12/06 00:16:29;;;;;;;3.73;2.73;;;3.50;97.30;;;;;;5032393;28;20576;-89
2022/12/06 00:18:56;;;;;;;2.90;2.70;;;3.50;97.30;;;;;;5032031;28;20858;-88
2022/12/06 00:21:24;;;;;;;6.70;4.63;;;3.50;97.30;;;;;;5031670;28;20459;-89
2022/12/06 00:23:52;;;;;;;2.20;2.00;;;3.40;97.30;;;;;;5031935;28;20419;-88
2022/12/06 00:26:19;;;;;;;4.97;2.73;;;3.40;97.30;;;;;;5032014;28;20419;-89
2022/12/06 00:28:45;;;;;;;3.33;3.13;;;3.40;97.30;;;;;;5032315;28;20975;-89
2022/12/06 00:31:16;;;;;;;3.77;3.57;;;3.40;97.30;;;;;;5031671;28;20496;-89
2022/12/06 00:33:42;;;;;;;4.50;3.93;;;3.40;97.30;;;;;;5031769;28;20435;-88
2022/12/06 00:36:11;;;;;;;9.20;3.73;;;3.40;97.30;;;;;;5031867;28;20442;-88
2022/12/06 00:38:37;;;;;;;4.00;1.60;;;3.40;97.30;;;;;;5033469;28;20188;-88
2022/12/06 00:41:16;;;;;;;8.33;2.50;;;3.40;97.30;;;;;;5031627;28;20459;-88
2022/12/06 00:43:42;;;;;;;7.50;2.83;;;3.40;97.30;;;;;;5022112;28;20660;-89
2022/12/06 00:46:13;;;;;;;2.90;2.70;;;3.50;97.30;;;;;;5028656;28;20419;-88
2022/12/06 00:48:38;;;;;;;3.07;2.60;;;3.50;97.30;;;;;;5031584;28;20427;-88
2022/12/06 01:50:31;;;;;;;6.43;1.80;;;3.50;97.30;;;;;;5004222;28;20493;-90
2022/12/06 01:53:39;;;;;;;3.60;3.37;;;3.40;97.30;;;;;;5018033;23;20991;-91
2022/12/06 01:56:50;;;;;;;2.23;2.03;;;3.50;97.30;;;;;;4998612;28;20428;-89
2022/12/06 01:59:20;;;;;;;3.90;3.70;;;3.40;97.30;;;;;;5004889;28;20428;-89
2022/12/06 02:02:31;;;;;;;5.17;4.20;;;3.40;97.30;;;;;;4988526;28;20463;-87
2022/12/06 02:05:00;;;;;;;2.93;1.83;;;3.40;97.30;;;;;;4922377;29;20424;-88
2022/12/06 02:07:49;;;;;;;2.33;2.13;;;3.40;97.30;;;;;;4923930;29;20436;-90
2022/12/06 02:10:50;;;;;;;2.47;2.30;;;3.40;97.30;;;;;;4922220;29;20468;-87
2022/12/06 02:17:10;;;;;;;2.37;2.10;;;3.50;97.30;;;;;;4899923;29;20441;-88
2022/12/06 02:20:20;;;;;;;5.50;4.10;;;3.50;97.30;;;;;;4900072;29;20430;-88
2022/12/06 02:23:29;;;;;;;4.90;3.00;;;3.50;97.30;;;;;;4887346;29;20484;-88
2022/12/06 02:33:40;;;;;;;2.13;1.97;;;3.40;97.30;;;;;;4844793;29;20501;-88
2022/12/06 02:47:20;;;;;;;3.73;3.53;;;3.30;97.30;;;;;;4935197;29;21164;-88
2022/12/06 02:56:31;;;;;;;5.20;4.20;;;3.30;97.30;;;;;;4992372;28;20468;-91
2022/12/06 02:59:00;;;;;;;2.40;2.20;;;3.30;97.30;;;;;;4974645;28;20418;-88
2022/12/06 03:01:49;;;;;;;5.80;2.47;;;3.30;97.30;;;;;;4977237;28;20514;-88
2022/12/06 03:05:10;;;;;;;2.67;2.47;;;3.30;97.30;;;;;;4977598;28;20475;-88
2022/12/06 03:08:10;;;;;;;3.53;3.23;;;3.30;97.30;;;;;;4976925;28;20421;-89
2022/12/06 03:11:01;;;;;;;2.20;1.60;;;3.30;97.30;;;;;;4977115;28;20451;-88
2022/12/06 03:19:41;;;;;;;3.83;3.67;;;3.20;97.30;;;;;;4917916;29;20527;-88
2022/12/06 03:23:01;;;;;;;2.00;1.77;;;3.20;97.30;;;;;;4917577;29;21001;-88
2022/12/06 03:25:49;;;;;;;;;;;;;;;;;;;;;
2022/12/06 03:28:39;;;;;;;2.63;2.43;;;3.20;97.30;;;;;;4931404;29;20426;-88
2022/12/06 03:31:30;;;;;;;4.23;2.80;;;3.20;97.30;;;;;;4925494;29;20455;-88
2022/12/06 03:38:10;;;;;;;;;;;;;;;;;;;;;
2022/12/06 03:44:21;;;;;;;6.47;3.63;;;3.20;97.30;;;;;;4987166;28;20503;-89
2022/12/06 03:53:10;;;;;;;2.07;1.93;;;3.20;97.30;;;;;;5168398;22;20494;-88
2022/12/06 03:56:20;;;;;;;2.63;2.23;;;3.20;97.30;;;;;;5016290;28;20494;-89
2022/12/06 03:59:28;;;;;;;1.67;1.57;;;3.20;97.30;;;;;;5003430;28;20455;-88
2022/12/06 04:02:00;;;;;;;3.70;3.50;;;3.20;97.30;;;;;;5008109;28;20490;-87
2022/12/06 04:04:50;;;;;;;4.30;3.97;;;3.10;97.30;;;;;;4996243;28;20424;-88
2022/12/06 04:11:10;;;;;;;2.73;2.53;;;3.10;97.30;;;;;;4990667;28;20477;-88
2022/12/06 04:14:00;;;;;;;5.13;2.50;;;3.00;97.30;;;;;;4899285;29;20456;-89
2022/12/06 04:20:11;;;;;;;2.07;1.93;;;3.00;97.30;;;;;;5015437;28;20422;-89
2022/12/06 04:25:40;;;;;;;6.40;3.43;;;3.00;97.30;;;;;;5013464;28;20426;-89
2022/12/06 04:40:51;;;;;;;4.53;2.60;;;3.00;97.30;;;;;;4931400;29;20798;-89
2022/12/06 04:47:10;;;;;;;3.50;2.77;;;3.00;97.30;;;;;;4926284;29;20427;-88
2022/12/06 04:50:29;;;;;;;8.23;2.40;;;3.00;97.30;;;;;;4909917;29;20439;-89
2022/12/06 05:00:30;;;;;;;2.83;2.60;;;2.90;97.30;;;;;;4924389;29;20567;-88
2022/12/06 05:03:48;;;;;;;1.90;1.83;;;2.90;97.30;;;;;;4836918;29;20539;-89
2022/12/06 05:06:20;;;;;;;6.20;3.10;;;2.90;97.30;;;;;;4861592;29;20420;-88
2022/12/06 05:09:10;;;;;;;2.63;1.80;;;2.90;97.30;;;;;;4858552;29;20966;-89
2022/12/06 05:12:09;;;;;;;9.27;3.37;;;2.90;97.30;;;;;;4993018;22;20485;-88
2022/12/06 05:14:41;;;;;;;2.37;2.23;;;3.00;97.30;;;;;;5037418;28;20529;-89
2022/12/06 05:17:50;;;;;;;4.40;3.50;;;2.90;97.30;;;;;;5026084;28;20422;-89
2022/12/06 05:20:51;;;;;;;5.00;3.17;;;3.00;97.30;;;;;;4958571;28;20410;-89
2022/12/06 05:24:00;;;;;;;6.53;4.40;;;3.00;97.30;;;;;;4933379;29;20486;-88
2022/12/06 05:30:11;;;;;;;10.53;3.50;;;3.00;97.30;;;;;;4880435;29;20528;-88
2022/12/06 05:36:31;;;;;;;4.47;2.27;;;3.00;97.30;;;;;;4842334;29;20457;-89
2022/12/06 05:38:59;;;;;;;8.97;2.27;;;3.00;97.30;;;;;;4833324;29;20436;-88
2022/12/06 05:41:30;;;;;;;2.80;2.60;;;3.00;97.30;;;;;;4841937;29;20546;-89
2022/12/06 05:47:20;;;;;;;1.90;1.80;;;2.90;97.30;;;;;;4874229;29;20783;-88
2022/12/06 05:50:11;;;;;;;12.43;2.60;;;2.90;97.30;;;;;;4901473;29;20433;-88
2022/12/06 05:53:10;;;;;;;2.73;2.30;;;2.90;97.30;;;;;;4917285;29;20448;-89
2022/12/06 05:59:30;;;;;;;6.20;2.80;;;3.00;97.30;;;;;;4865183;29;20938;-88
2022/12/06 06:20:41;;;;;;;;;;;;;;;;;;;;;
2022/12/06 06:32:51;;;;;;;10.07;4.63;;;2.90;97.30;;;;;;4891159;29;20442;-88
2022/12/06 06:36:10;;;;;;;1.90;1.47;;;2.90;97.30;;;;;;4879892;29;20922;-90
2022/12/06 06:38:41;;;;;;;3.73;2.10;;;2.90;97.30;;;;;;4881971;29;20431;-90
2022/12/06 06:41:41;;;;;;;3.97;3.70;;;2.90;97.30;;;;;;4919223;29;20826;-89
2022/12/06 06:44:29;;;;;;;4.13;2.77;;;2.90;97.30;;;;;;4918999;29;20805;-90
2022/12/06 06:47:31;;;;;;;2.70;1.30;;;2.90;97.30;;;;;;4846168;29;20439;-90
2022/12/06 06:50:10;;;;;;;7.60;3.20;;;2.90;97.30;;;;;;4826668;29;20467;-89
2022/12/06 06:53:11;;;;;;;3.00;2.80;;;2.90;97.30;;;;;;4827955;29;20446;-89
2022/12/06 06:59:31;;;;;;;14.03;3.50;;;2.90;97.30;;;;;;4786672;30;20961;-88
2022/12/06 07:02:51;;;;;;;14.50;3.87;;;2.90;97.30;;;;;;4951370;23;20526;-88
2022/12/06 07:05:17;;;;;;;2.30;2.07;;;2.90;97.30;;;;;;5014595;23;20631;-88
2022/12/06 07:07:43;;;;;;;3.83;3.73;;;2.90;97.30;;;;;;5029462;28;20502;-88
2022/12/06 07:10:09;;;;;;;4.80;4.50;;;2.90;97.30;;;;;;5015662;28;20183;-90
2022/12/06 07:12:34;;;;;;;2.33;2.00;;;3.00;97.30;;;;;;5013897;28;20422;-89
2022/12/06 07:15:00;;;;;;;8.63;1.83;;;3.00;97.30;;;;;;5013059;28;20440;-89
2022/12/06 07:17:25;;;;;;;2.87;1.93;;;3.00;97.30;;;;;;5016133;28;20187;-89
2022/12/06 07:19:51;;;;;;;1.40;1.30;;;2.90;97.30;;;;;;4999668;28;20215;-89
2022/12/06 07:22:16;;;;;;;2.13;1.97;;;2.90;97.30;;;;;;4993186;28;20238;-88
2022/12/06 07:24:42;;;;;;;8.03;2.20;;;2.90;97.30;;;;;;5002037;28;20219;-87
2022/12/06 07:27:07;;;;;;;3.10;2.30;;;2.90;97.30;;;;;;5000792;28;20189;-87
2022/12/06 07:29:33;;;;;;;5.13;4.83;;;2.90;97.30;;;;;;4994153;28;20169;-89
2022/12/06 07:32:04;;;;;;;2.73;2.53;;;2.90;97.30;;;;;;4992869;28;20189;-87
2022/12/06 07:34:30;;;;;;;7.80;4.27;;;2.90;97.30;;;;;;4996236;28;20576;-89
2022/12/06 07:36:57;;;;;;;1.87;1.77;;;2.90;97.30;;;;;;4992086;28;20428;-85
2022/12/06 07:39:23;;;;;;;3.33;3.03;;;2.90;97.30;;;;;;4988852;28;20276;-89
2022/12/06 07:47:17;;;;;;;3.60;2.70;;;2.80;97.30;;;;;;5012554;28;20919;-87
2022/12/06 07:49:43;;;;;;;5.63;2.53;;;2.80;97.30;;;;;;4994146;28;20494;-88
2022/12/06 07:52:08;;;;;;;1.50;1.40;;;2.80;97.30;;;;;;4995540;28;20192;-87
2022/12/06 07:54:34;;;;;;;2.23;1.77;;;2.80;97.30;;;;;;5010643;28;20636;-89
2022/12/06 07:56:59;;;;;;;2.30;1.27;;;2.80;97.30;;;;;;5012635;28;20534;-89
2022/12/06 07:59:25;;;;;;;3.97;2.30;;;2.80;97.30;;;;;;4993947;28;20575;-90
2022/12/06 08:01:52;;;;;;;3.93;3.47;;;2.80;97.30;;;;;;4993374;28;20208;-89
2022/12/06 08:04:17;;;;;;;1.20;1.10;;;2.80;97.30;;;;;;4990495;28;20412;-90
2022/12/06 08:06:44;;;;;;;2.07;1.93;;;2.80;97.30;;;;;;5010693;28;20478;-89
2022/12/06 08:09:10;;;;;;;2.00;1.87;;;2.80;97.30;;;;;;5015749;28;20416;-90
2022/12/06 08:11:35;;;;;;;3.03;2.70;;;2.80;97.30;;;;;;5016270;28;20426;-89
2022/12/06 08:14:02;;;;;;;8.60;3.13;;;2.80;97.30;;;;;;5021206;28;20252;-87
2022/12/06 08:16:28;;;;;;;12.03;3.00;;;2.80;97.30;;;;;;5020005;28;20208;-89
2022/12/06 08:18:54;;;;;;;2.80;2.30;;;2.80;97.30;;;;;;5019403;28;20423;-88
2022/12/06 08:21:20;;;;;;;2.27;2.07;;;2.80;97.30;;;;;;5019195;28;20241;-88
2022/12/06 08:23:46;;;;;;;3.27;2.27;;;2.80;97.30;;;;;;5030587;28;20455;-89
2022/12/06 08:26:14;;;;;;;2.43;2.23;;;2.80;97.30;;;;;;5030922;28;20202;-88
2022/12/06 08:28:42;;;;;;;3.50;2.63;;;2.80;97.30;;;;;;5021609;28;20176;-89
2022/12/06 08:31:13;;;;;;;3.90;3.70;;;2.80;97.30;;;;;;5030842;28;20423;-89
2022/12/06 08:33:39;;;;;;;2.60;2.23;;;2.80;97.30;;;;;;5016538;28;20496;-90
2022/12/06 08:36:10;;;;;;;2.20;2.03;;;2.80;97.30;;;;;;5026348;28;20509;-89
2022/12/06 08:38:37;;;;;;;7.13;3.33;;;2.80;97.30;;;;;;5012480;28;20181;-90
2022/12/06 08:41:04;;;;;;;4.30;2.80;;;2.80;97.30;;;;;;5031359;28;20553;-89
2022/12/06 08:43:30;;;;;;;2.97;2.63;;;2.80;97.30;;;;;;5025877;28;20507;-90
2022/12/06 08:45:56;;;;;;;3.60;2.80;;;2.80;97.30;;;;;;5015444;28;20438;-89
2022/12/06 08:48:21;;;;;;;15.60;3.67;;;2.80;97.30;;;;;;5033642;28;20407;-90
2022/12/06 08:50:47;;;;;;;2.17;2.00;;;2.80;97.30;;;;;;5018444;28;20272;-88
2022/12/06 08:53:12;;;;;;;2.27;2.07;;;2.80;97.30;;;;;;5022185;28;20223;-89
2022/12/06 08:55:38;;;;;;;4.07;3.83;;;2.80;97.30;;;;;;5018949;28;20255;-89
2022/12/06 08:58:04;;;;;;;8.23;3.10;;;2.90;97.30;;;;;;5032770;28;20179;-89
2022/12/06 09:00:29;;;;;;;4.07;2.20;;;2.90;97.30;;;;;;5018789;28;20189;-89
2022/12/06 09:02:55;;;;;;;5.57;3.43;;;2.90;97.30;;;;;;5014901;28;20288;-89
2022/12/06 09:05:20;;;;;;;2.23;1.40;;;2.90;97.30;;;;;;5026583;28;20320;-89
2022/12/06 09:07:46;;;;;;;3.40;3.00;;;2.90;97.30;;;;;;5025844;28;20216;-89
2022/12/06 09:10:11;;;;;;;1.70;1.60;;;2.90;97.30;;;;;;5027542;28;20612;-90
2022/12/06 09:12:37;;;;;;;2.23;2.10;;;2.90;97.30;;;;;;5033232;28;20719;-89
2022/12/06 09:15:04;;;;;;;2.20;1.87;;;2.90;97.30;;;;;;5027662;28;20200;-89
2022/12/06 09:17:29;;;;;;;4.13;3.10;;;2.90;97.30;;;;;;5013712;28;20181;-89
2022/12/06 09:19:55;;;;;;;1.50;1.40;;;2.90;97.30;;;;;;5014833;28;20993;-88
2022/12/06 09:22:20;;;;;;;1.87;1.80;;;2.90;97.30;;;;;;5013938;28;20578;-88
2022/12/06 09:24:46;;;;;;;2.30;2.10;;;2.90;97.30;;;;;;5012739;28;20637;-88
2022/12/06 09:27:11;;;;;;;2.00;1.90;;;2.90;97.30;;;;;;5017349;28;20532;-88
2022/12/06 09:29:37;;;;;;;7.23;3.67;;;2.90;97.30;;;;;;5015231;28;20209;-88
2022/12/06 09:32:03;;;;;;;1.30;1.20;;;2.90;97.30;;;;;;5032339;28;20196;-88
2022/12/06 09:34:28;;;;;;;1.90;1.83;;;2.90;97.30;;;;;;5017507;28;20208;-88
2022/12/06 09:36:57;;;;;;;3.80;3.37;;;2.90;97.30;;;;;;5023710;28;20519;-89
2022/12/06 09:39:27;;;;;;;1.77;1.60;;;3.00;97.30;;;;;;5012454;28;20200;-88
2022/12/06 09:42:22;;;;;;;1.17;1.10;;;3.00;97.30;;;;;;5020644;28;20475;-88
2022/12/06 09:45:01;;;;;;;1.57;1.47;;;2.90;97.30;;;;;;5005907;28;20440;-88
2022/12/06 09:48:12;;;;;;;2.60;1.60;;;2.90;97.30;;;;;;5018130;28;20408;-88
2022/12/06 09:51:18;;;;;;;2.17;2.00;;;2.90;97.30;;;;;;5015288;28;20419;-88
2022/12/06 09:54:06;;;;;;;8.57;2.43;;;2.90;97.30;;;;;;5006498;28;20949;-88
2022/12/06 09:56:45;;;;;;;2.80;2.60;;;2.90;97.30;;;;;;5011057;28;20443;-87
2022/12/06 09:59:16;;;;;;;1.90;1.80;;;2.90;97.30;;;;;;5014761;28;20426;-88
2022/12/06 10:02:07;;;;;;;1.57;1.50;;;3.00;97.30;;;;;;5018218;28;20451;-88
2022/12/06 10:05:01;;;;;;;1.53;1.43;;;2.90;97.30;;;;;;5012554;28;20559;-86
2022/12/06 10:07:43;;;;;;;2.60;2.33;;;2.90;97.30;;;;;;5003898;28;20443;-88
2022/12/06 10:10:25;;;;;;;1.63;1.53;;;3.00;97.30;;;;;;4997639;28;20396;-87
2022/12/06 10:13:18;;;;;;;1.67;1.57;;;3.00;97.30;;;;;;4997740;28;20439;-87
2022/12/06 10:16:05;;;;;;;2.50;2.30;;;2.90;97.30;;;;;;5003149;28;20918;-89
2022/12/06 10:18:39;;;;;;;2.47;2.27;;;2.90;97.30;;;;;;5014598;28;20527;-89
2022/12/06 10:21:22;;;;;;;3.70;3.47;;;2.90;97.30;;;;;;4997274;28;20947;-87
2022/12/06 10:24:23;;;;;;;2.23;2.07;;;2.80;97.30;;;;;;5008317;28;20496;-87
2022/12/06 10:26:54;;;;;;;1.20;1.10;;;2.80;97.30;;;;;;4989751;28;20520;-87
2022/12/06 10:29:27;;;;;;;2.70;2.53;;;2.80;97.30;;;;;;4999050;28;20416;-89
2022/12/06 10:32:21;;;;;;;5.70;1.97;;;2.80;97.30;;;;;;4994406;28;20427;-90
2022/12/06 10:34:56;;;;;;;2.07;1.93;;;2.90;97.30;;;;;;5010650;28;20436;-88
2022/12/06 10:37:27;;;;;;;10.90;3.03;;;2.90;97.30;;;;;;5003924;28;20419;-89
2022/12/06 10:40:03;;;;;;;3.63;2.83;;;2.90;97.30;;;;;;4998466;28;20524;-88
2022/12/06 10:42:52;;;;;;;1.67;1.57;;;2.80;97.30;;;;;;5010831;28;20504;-88
2022/12/06 10:48:35;;;;;;;2.20;2.03;;;2.80;97.30;;;;;;5016367;28;20399;-88
2022/12/06 10:51:20;;;;;;;3.20;2.70;;;2.80;97.30;;;;;;5014579;28;20553;-89
2022/12/06 10:54:28;;;;;;;5.07;3.00;;;2.80;97.30;;;;;;4996809;28;20412;-89
2022/12/06 10:56:59;;;;;;;1.83;1.73;;;2.80;97.30;;;;;;4979205;28;20433;-89
2022/12/06 10:59:38;;;;;;;4.57;2.17;;;2.80;97.30;;;;;;4996799;28;20608;-87
2022/12/06 11:02:21;;;;;;;2.13;1.97;;;2.80;97.30;;;;;;4996156;28;20547;-89
2022/12/06 11:04:48;;;;;;;8.33;2.03;;;2.80;97.30;;;;;;4995085;28;20443;-89
2022/12/06 11:07:19;;;;;;;1.67;1.60;;;2.80;97.30;;;;;;5010126;28;20412;-88
2022/12/06 11:09:53;;;;;;;3.67;2.53;;;2.90;97.30;;;;;;5002338;28;20504;-89
2022/12/06 11:12:32;;;;;;;2.20;1.53;;;2.90;97.30;;;;;;5003029;28;20823;-88
2022/12/06 11:15:16;;;;;;;2.23;2.10;;;2.90;97.30;;;;;;5007872;28;20954;-88
2022/12/06 11:17:46;;;;;;;2.17;2.00;;;2.90;97.30;;;;;;4995466;28;20420;-90
2022/12/06 11:20:38;;;;;;;2.60;2.40;;;2.90;97.30;;;;;;4992467;28;20456;-88
2022/12/06 11:23:31;;;;;;;2.33;2.13;;;2.90;97.30;;;;;;4995819;28;21001;-90
2022/12/06 11:26:13;;;;;;;4.50;2.57;;;2.80;97.30;;;;;;5019217;28;20428;-88
2022/12/06 11:29:04;;;;;;;2.73;2.53;;;2.80;97.30;;;;;;5000224;28;20906;-87
2022/12/06 11:31:44;;;;;;;2.23;2.10;;;2.80;97.30;;;;;;5008909;28;20432;-88
2022/12/06 11:34:18;;;;;;;2.63;2.47;;;2.80;97.30;;;;;;5024898;28;21031;-88
2022/12/06 11:36:48;;;;;;;1.63;1.53;;;2.80;97.30;;;;;;5001987;28;20446;-88
2022/12/06 11:39:14;;;;;;;1.57;1.47;;;2.80;97.30;;;;;;5000382;28;20977;-91
2022/12/06 11:41:42;;;;;;;1.87;1.77;;;2.80;97.30;;;;;;5014012;28;20456;-87
2022/12/06 11:44:17;;;;;;;1.80;1.70;;;2.80;97.30;;;;;;5005048;28;20471;-89
2022/12/06 11:46:43;;;;;;;2.83;2.33;;;2.80;97.30;;;;;;5019910;28;20438;-88
2022/12/06 11:49:27;;;;;;;1.73;1.63;;;2.80;97.30;;;;;;5022176;28;20790;-89
2022/12/06 11:51:54;;;;;;;3.63;3.43;;;2.70;97.30;;;;;;5003854;28;20415;-90
2022/12/06 11:54:32;;;;;;;3.03;2.90;;;2.80;97.30;;;;;;5000796;28;20427;-87
2022/12/06 11:57:01;;;;;;;6.63;4.00;;;2.80;97.30;;;;;;5011814;28;20934;-88
2022/12/06 11:59:30;;;;;;;1.50;1.33;;;2.70;97.30;;;;;;5000183;28;20419;-88
2022/12/06 12:02:02;;;;;;;1.70;1.60;;;2.70;97.30;;;;;;4994579;28;20603;-88
2022/12/06 12:04:39;;;;;;;5.90;3.03;;;2.70;97.30;;;;;;5012616;28;20457;-88
2022/12/06 12:07:08;;;;;;;2.53;2.33;;;2.70;97.30;;;;;;5020543;28;20420;-90
2022/12/06 12:10:01;;;;;;;1.10;1.00;;;2.70;97.30;;;;;;5002481;28;20490;-87
2022/12/06 12:15:31;;;;;;;4.00;3.80;;;2.70;97.30;;;;;;5010748;28;20486;-88
2022/12/06 12:17:59;;;;;;;3.17;2.97;;;2.70;97.30;;;;;;4994313;28;20474;-89
2022/12/06 12:20:28;;;;;;;2.73;2.20;;;2.70;97.30;;;;;;5012388;28;20470;-88
2022/12/06 12:23:15;;;;;;;3.90;2.30;;;2.70;97.30;;;;;;4994523;28;20821;-89
2022/12/06 12:25:43;;;;;;;1.40;1.30;;;2.60;97.30;;;;;;5002148;28;20435;-87
2022/12/06 12:28:24;;;;;;;2.00;1.30;;;2.60;97.30;;;;;;4993248;28;20495;-88
2022/12/06 12:30:54;;;;;;;2.40;2.20;;;2.70;97.30;;;;;;4993190;28;20496;-88
2022/12/06 12:33:22;;;;;;;1.67;1.57;;;2.60;97.30;;;;;;4993817;28;20419;-88
2022/12/06 12:35:53;;;;;;;2.00;1.90;;;2.60;97.30;;;;;;5006290;28;20435;-88
2022/12/06 12:38:37;;;;;;;2.63;2.43;;;2.60;97.30;;;;;;4999373;28;20422;-87
2022/12/06 12:41:20;;;;;;;1.70;1.60;;;2.60;97.30;;;;;;5009328;28;20434;-88
2022/12/06 12:43:56;;;;;;;3.60;2.13;;;2.60;97.30;;;;;;5001134;28;20424;-87
2022/12/06 12:46:21;;;;;;;2.27;1.70;;;2.60;97.30;;;;;;4993321;28;20537;-87
2022/12/06 12:48:49;;;;;;;4.00;2.10;;;2.60;97.30;;;;;;4993325;28;20428;-88
2022/12/06 12:51:47;;;;;;;3.93;2.17;;;2.60;97.30;;;;;;5000588;28;20434;-88
2022/12/06 12:54:22;;;;;;;1.27;1.17;;;2.70;97.30;;;;;;5007943;28;20792;-88
2022/12/06 12:56:48;;;;;;;8.43;2.93;;;2.70;97.30;;;;;;4997260;28;20509;-87
2022/12/06 12:59:20;;;;;;;3.13;2.27;;;2.70;97.30;;;;;;5033585;28;20419;-88
2022/12/06 13:01:59;;;;;;;2.20;1.90;;;2.70;97.30;;;;;;5020921;28;20489;-88
2022/12/06 13:04:25;;;;;;;1.70;1.60;;;2.70;97.30;;;;;;5005656;28;20418;-87
2022/12/06 13:07:09;;;;;;;1.93;1.83;;;2.70;97.30;;;;;;5001805;28;20556;-88
2022/12/06 13:14:52;;;;;;;2.23;2.03;;;2.70;97.30;;;;;;5014561;28;20479;-91
2022/12/06 13:17:23;;;;;;;2.70;2.47;;;2.60;97.30;;;;;;4999153;28;20420;-92
2022/12/06 13:19:50;;;;;;;1.40;1.30;;;2.60;97.30;;;;;;4998577;28;20436;-90
2022/12/06 13:23:24;;;;;;;1.53;1.43;;;2.60;97.30;;;;;;4997695;28;20469;-91
2022/12/06 13:26:42;;;;;;;5.40;3.10;;;2.60;97.30;;;;;;4952442;28;20451;-89
2022/12/06 13:29:32;;;;;;;1.10;1.00;;;2.60;97.30;;;;;;4970222;28;20434;-90
2022/12/06 13:33:12;;;;;;;1.90;1.80;;;2.60;97.30;;;;;;4978550;28;20417;-90
2022/12/06 13:36:23;;;;;;;2.50;2.30;;;2.60;97.30;;;;;;4908232;29;20424;-89
2022/12/06 13:45:53;;;;;;;2.50;1.97;;;2.60;97.30;;;;;;4952974;28;20474;-92
2022/12/06 13:48:32;;;;;;;1.37;1.30;;;2.60;97.30;;;;;;4951250;28;20412;-90
2022/12/06 13:51:42;;;;;;;1.30;1.20;;;2.60;97.30;;;;;;5000407;22;20495;-92
2022/12/06 13:57:33;;;;;;;2.13;1.97;;;2.50;97.30;;;;;;4989686;28;20408;-89
2022/12/06 14:04:23;;;;;;;1.60;1.50;;;2.60;97.30;;;;;;4994422;28;20451;-88
2022/12/06 14:07:32;;;;;;;2.87;2.70;;;2.60;97.30;;;;;;4981465;28;20444;-90
2022/12/06 14:12:33;;;;;;;2.10;1.80;;;2.60;97.30;;;;;;5043719;23;20506;-90
2022/12/06 14:16:33;;;;;;;1.53;1.43;;;2.50;97.30;;;;;;4998226;28;20424;-90
2022/12/06 14:18:32;;;;;;;1.67;1.57;;;2.60;97.30;;;;;;4995336;28;20604;-90
2022/12/06 14:21:02;;;;;;;5.67;1.90;;;2.50;97.30;;;;;;4997511;28;20472;-90
2022/12/06 14:23:33;;;;;;;1.37;1.27;;;2.50;97.30;;;;;;4994784;28;20822;-88
2022/12/06 14:26:29;;;;;;;1.30;1.20;;;2.60;97.30;;;;;;4992694;28;20432;-89
2022/12/06 14:29:00;;;;;;;13.83;1.97;;;2.60;97.30;;;;;;4990140;28;20946;-89
2022/12/06 14:31:49;;;;;;;1.70;1.20;;;2.60;97.30;;;;;;4998022;28;20436;-89
2022/12/06 14:34:59;;;;;;;1.93;1.83;;;2.50;97.30;;;;;;4997766;28;20936;-89
2022/12/06 14:47:01;;;;;;;2.87;2.50;;;2.40;97.30;;;;;;4994922;28;20507;-91
2022/12/06 14:53:00;;;;;;;2.40;1.70;;;2.40;97.30;;;;;;5014571;28;20239;-91
2022/12/06 14:55:53;;;;;;;1.03;0.93;;;2.40;97.30;;;;;;4972262;28;20434;-89
2022/12/06 14:58:51;;;;;;;1.87;1.77;;;2.40;97.30;;;;;;5012781;28;20427;-90
2022/12/06 15:05:31;;;;;;;2.63;2.43;;;2.30;97.30;;;;;;4816335;29;20433;-89
2022/12/06 15:07:57;;;;;;;2.30;1.83;;;2.20;97.30;;;;;;4943666;29;20411;-91
2022/12/06 15:10:28;;;;;;;3.87;2.00;;;2.20;97.30;;;;;;4988381;28;21047;-90
2022/12/06 15:13:05;;;;;;;1.40;1.30;;;2.20;97.30;;;;;;5000103;28;20261;-89
2022/12/06 15:15:31;;;;;;;5.23;1.93;;;2.20;97.30;;;;;;5014382;28;20492;-87
2022/12/06 15:19:24;;;;;;;1.57;1.47;;;2.50;97.30;;;;;;5027726;28;20907;-88
2022/12/06 15:25:25;;;;;;;1.87;1.77;;;2.40;97.30;;;;;;4949038;28;20784;-88
2022/12/06 15:28:09;;;;;;;;;;;;;;;;;;;;;
2022/12/06 15:30:36;;;;;;;1.30;1.20;;;2.30;97.30;;;;;;4909912;29;20817;-88
2022/12/06 15:33:45;;;;;;;1.40;1.30;;;2.20;97.30;;;;;;4901010;29;20535;-87
2022/12/06 15:37:06;;;;;;;1.47;1.37;;;2.20;97.30;;;;;;4925180;28;20429;-88
2022/12/06 15:39:34;;;;;;;3.43;2.17;;;2.20;97.30;;;;;;4862941;29;20438;-87
2022/12/06 15:42:35;;;;;;;1.60;1.53;;;2.20;97.30;;;;;;4943809;28;20465;-88
2022/12/06 15:48:26;;;;;;;1.73;1.63;;;2.20;97.30;;;;;;4914834;29;20625;-88
2022/12/06 15:56:56;;;;;;;1.53;1.47;;;2.30;97.30;;;;;;4967712;28;20480;-88
2022/12/06 15:59:24;;;;;;;1.73;1.63;;;2.30;97.30;;;;;;4964824;28;21202;-89
2022/12/06 16:01:53;;;;;;;1.17;1.07;;;2.30;97.30;;;;;;5030008;28;20477;-89
2022/12/06 16:04:31;;;;;;;1.20;1.10;;;2.30;97.30;;;;;;5052336;28;20425;-89
2022/12/06 16:14:55;;;;;;;1.27;1.17;;;2.40;97.30;;;;;;4977688;28;20462;-89
2022/12/06 16:21:06;;;;;;;1.10;1.00;;;2.40;97.30;;;;;;4992729;23;20503;-88
2022/12/06 16:24:27;;;;;;;;;;;;;;;;;;;;;
2022/12/06 16:26:56;;;;;;;1.10;1.00;;;2.40;97.30;;;;;;5014694;28;20512;-88
2022/12/06 16:29:42;;;;;;;1.20;1.10;;;2.50;97.30;;;;;;4999799;28;20958;-88
2022/12/06 16:32:15;;;;;;;1.80;1.70;;;2.50;97.30;;;;;;4973656;28;20975;-87
2022/12/06 16:34:44;;;;;;;1.20;1.10;;;2.50;97.30;;;;;;4980089;28;20417;-88
2022/12/06 16:37:13;;;;;;;2.73;1.80;;;2.50;97.30;;;;;;4995988;28;20417;-89
2022/12/06 16:39:40;;;;;;;1.30;1.20;;;2.40;97.30;;;;;;4975913;28;20432;-85
2022/12/06 16:42:06;;;;;;;1.50;1.40;;;2.40;97.30;;;;;;4978397;28;20459;-89
2022/12/06 16:44:49;;;;;;;2.13;1.70;;;2.30;97.30;;;;;;4995013;28;20932;-89
2022/12/06 16:47:15;;;;;;;1.23;1.13;;;2.30;97.30;;;;;;4978714;28;20188;-87
2022/12/06 16:49:44;;;;;;;2.80;2.60;;;2.30;97.30;;;;;;4975836;28;20417;-86
2022/12/06 16:52:12;;;;;;;1.30;1.30;;;2.40;97.30;;;;;;4978635;28;20205;-89
2022/12/06 16:54:45;;;;;;;1.40;1.30;;;2.30;97.30;;;;;;4994254;28;20417;-89
2022/12/06 16:57:14;;;;;;;3.23;3.03;;;2.30;97.30;;;;;;4996243;28;20421;-88
2022/12/06 16:59:42;;;;;;;1.90;1.80;;;2.40;97.30;;;;;;4978228;28;20809;-87
2022/12/06 17:02:27;;;;;;;1.70;1.60;;;2.40;97.30;;;;;;4975445;28;20459;-87
2022/12/06 17:04:53;;;;;;;1.17;1.07;;;2.40;97.30;;;;;;4978305;28;20420;-88
2022/12/06 17:07:19;;;;;;;2.90;2.37;;;2.60;97.30;;;;;;4979483;28;20938;-88
2022/12/06 17:09:47;;;;;;;1.80;1.70;;;2.60;97.30;;;;;;4978732;28;20420;-86
2022/12/06 17:12:56;;;;;;;2.63;2.20;;;2.60;97.30;;;;;;4970762;28;20193;-90
2022/12/06 17:25:56;;;;;;;3.03;2.50;;;2.50;97.30;;;;;;4904499;29;20501;-90
2022/12/06 17:32:35;;;;;;;;;;;;;;;;;;;;;
2022/12/06 17:44:45;;;;;;;;;;;;;;;;;;;;;
2022/12/06 17:53:55;;;;;;;3.37;2.43;;;2.50;97.30;;;;;;5014956;28;20419;-88
2022/12/06 17:56:46;;;;;;;3.00;2.80;;;2.60;97.30;;;;;;5013533;28;20507;-87
2022/12/06 17:59:44;;;;;;;5.30;2.50;;;2.60;97.30;;;;;;4999466;28;20188;-88
2022/12/06 18:02:26;;;;;;;1.73;1.63;;;2.60;97.30;;;;;;4976804;28;20465;-86
2022/12/06 18:04:56;;;;;;;1.40;1.30;;;2.70;97.30;;;;;;4978018;28;20417;-86
2022/12/06 18:08:26;;;;;;;4.23;2.50;;;2.70;97.30;;;;;;4977054;28;21214;-86
2022/12/06 18:14:56;;;;;;;9.47;4.20;;;2.70;97.30;;;;;;4990493;28;20484;-87
2022/12/06 18:17:56;;;;;;;1.93;1.83;;;2.70;97.30;;;;;;4949098;28;20438;-88
2022/12/06 18:20:44;;;;;;;3.80;2.20;;;3.00;97.30;;;;;;4999605;23;20499;-86
2022/12/06 18:23:16;;;;;;;1.30;1.20;;;4.00;97.30;;;;;;5035062;28;20459;-86
2022/12/06 18:25:45;;;;;;;2.23;2.10;;;3.80;97.30;;;;;;5048949;28;20476;-88
2022/12/06 18:28:26;;;;;;;2.40;2.10;;;3.50;97.30;;;;;;5052165;28;20430;-86
2022/12/06 18:37:16;;;;;;;2.00;1.90;;;3.10;97.30;;;;;;4974271;28;20422;-87
2022/12/06 18:54:05;;;;;;;;;;;;;;;;;;;;;
2022/12/06 18:56:58;;;;;;;1.30;1.13;;;3.10;97.30;;;;;;4959225;28;20433;-87
2022/12/06 19:24:47;;;;;;;5.00;2.30;;;3.20;97.30;;;;;;4991792;28;20484;-85
2022/12/06 19:35:06;;;;;;;4.97;2.80;;;3.10;97.30;;;;;;5408163;23;20495;-88
2022/12/06 19:44:46;;;;;;;2.00;1.90;;;3.20;97.30;;;;;;5033378;28;20407;-87
2022/12/06 19:50:56;;;;;;;4.07;2.53;;;3.10;97.30;;;;;;4952111;29;20869;-87
2022/12/06 19:57:06;;;;;;;3.03;2.70;;;3.10;97.30;;;;;;4897654;29;20442;-88
2022/12/06 20:58:55;;;;;;;1.97;1.87;;;3.00;97.30;;;;;;5035198;28;20375;-86
2022/12/06 21:01:46;;;;;;;3.57;3.40;;;2.90;97.30;;;;;;4941598;28;20504;-86
2022/12/06 21:07:56;;;;;;;3.00;2.07;;;2.80;97.30;;;;;;4934983;29;20454;-86
2022/12/06 21:20:57;;;;;;;1.63;1.53;;;2.90;97.30;;;;;;5030563;23;20929;-90
2022/12/06 22:01:37;;;;;;;1.93;1.83;;;2.80;97.30;;;;;;4990249;22;20516;-86
2022/12/06 22:18:57;;;;;;;3.00;2.17;;;2.80;97.30;;;;;;5030415;28;20992;-88
2022/12/06 22:22:05;;;;;;;;;;;;;;;;;;;;;